North Central West Virginia Airport

Airport
ICAO code: 
KCKB
Summary
ICAO Region: 
NAM
Territory: 
Location: 
Clarksburg, West Virginia,
Coordinates: 
Aerial View: 
39° 17' 47" N, 80° 13' 41.002" W
Airport WX: 
Cumulonimbus
Metar
Observation
KCKB 040653Z AUTO 00000KT 10SM SCT049 03/M01 A3002 RMK AO2 SLP167 T00281011 TSNO
Station
Clarksburg, Clarksburg Benedum Airport
Date/Time
2021-12-04 06:53:00
Wind direction
Wind speed
00 kts
Lowest cloud amount
scattered clouds
Temperature
2.8°C
Dew point
-1.1°C
Humidity
75%
Weather condition
n/a

Description

North Central West Virginia Airport is a joint use public and military airport located 2 km northeast of the central business district of Bridgeport, a city in Harrison County, West Virginia.

Climatology

Humid “subtropical” climate (Köppen climate classification Cfa) - characterized by hot, humid summers and cool winters. Significant amounts of precipitation occur in all seasons in most areas. Winter rainfall (and sometimes snowfall) is associated with large storms that the westerlies steer from west to east. Most summer rainfall occurs during thunderstorms.

Runways

Designator Length Width Surface Rops
3/21 2134 46 ASP Yes/Yes
Airport map: 
Aerial View: 

SKYbrary Partners:

Safety knowledge contributed by: